Strona główna
METAR-TAF:

METAR-TAF

Lotnisko :

Willoughby, Ohio, Stany Zjednoczone

Szerokość geograficzna: 41-41-02N, Długość geograficzna: 081-23-23W, wysokość: 191 m

Aktualna obserwacja pogody

Raport powstał 28 minut temu, godzina 04:30 UTC
Wiatr 5 kt od południe
Temperatura 24°C
Wilgotność 54%
Ciśnienie 1016 hPa
Widzialność: 16.1 km
bezchmurnie

METAR: KLNN 280430Z AUTO 17005KT 10SM CLR 24/14 A3000 RMK AO1 T02350142

czas: 00:58 (04:58 UTC)


TAF: brakujący

Obserwacja i prognoza pogody dla ponad 4000 lotnisk (raport METAR i TAF).

Dostępne stacje oznaczono żółtymi i czerwonymi punktami na mapie.

Najedź kursorem aby zobaczyć nazwę stacji.

Kliknij aby zobaczyć obserwacje i prognozy pogody.

Aby zmienić mapę: kliknij na zielony przycisk z czarnym krzyżykiem, aby powiększyć; na zielony przycisk z myślnikiem, aby pomniejszyć; na zielone strzałki, aby przejść do map sąsiednich.


METAR-TAF: